createdAt,value
2022-08-28T00:02:12.832Z,5.30
2022-08-28T00:04:41.196Z,5.30
2022-08-28T00:07:09.923Z,5.00
2022-08-28T00:09:38.627Z,5.50
2022-08-28T00:12:07.580Z,5.40
2022-08-28T00:14:36.283Z,5.50
2022-08-28T00:17:04.675Z,6.30
2022-08-28T00:19:37.929Z,5.40
2022-08-28T00:22:08.018Z,5.00
2022-08-28T00:24:37.348Z,5.40
2022-08-28T00:27:24.067Z,4.90
2022-08-28T00:29:52.203Z,4.90
2022-08-28T00:32:24.065Z,5.10
2022-08-28T00:34:53.237Z,4.90
2022-08-28T00:37:24.603Z,4.90
2022-08-28T00:39:52.918Z,4.80
2022-08-28T00:42:21.263Z,4.80
2022-08-28T00:44:49.320Z,4.50
2022-08-28T00:47:17.407Z,4.60
2022-08-28T00:49:53.617Z,4.10
2022-08-28T00:52:24.956Z,3.80
2022-08-28T00:54:59.140Z,3.90
2022-08-28T00:57:35.415Z,4.60
2022-08-28T01:00:11.722Z,4.80
2022-08-28T01:02:40.132Z,3.70
2022-08-28T01:05:10.153Z,3.50
2022-08-28T01:07:39.440Z,3.70
2022-08-28T01:10:11.745Z,3.40
2022-08-28T01:12:39.859Z,4.20
2022-08-28T01:15:14.072Z,3.60
2022-08-28T01:17:47.094Z,3.80
2022-08-28T01:20:19.767Z,3.70
2022-08-28T01:23:04.151Z,3.30
2022-08-28T01:25:34.670Z,3.40
2022-08-28T01:28:06.046Z,2.80
2022-08-28T01:30:35.187Z,3.10
2022-08-28T01:33:03.704Z,3.50
2022-08-28T01:35:38.651Z,3.90
2022-08-28T01:38:06.821Z,3.20
2022-08-28T01:40:41.162Z,3.70
2022-08-28T01:43:21.308Z,3.30
2022-08-28T01:45:53.473Z,2.90
2022-08-28T01:48:24.638Z,3.60
2022-08-28T01:50:53.166Z,3.80
2022-08-28T01:53:24.978Z,3.30
2022-08-28T01:55:55.342Z,4.20
2022-08-28T01:58:25.215Z,4.20
2022-08-28T02:00:56.088Z,4.00
2022-08-28T02:03:24.540Z,4.50
2022-08-28T02:05:52.562Z,4.50
2022-08-28T02:08:21.431Z,3.80
2022-08-28T02:10:49.897Z,4.20
2022-08-28T02:13:17.842Z,3.80
2022-08-28T02:15:46.610Z,4.20
2022-08-28T02:18:15.077Z,4.00
2022-08-28T02:20:43.570Z,4.40
2022-08-28T02:23:11.887Z,4.30
2022-08-28T02:25:40.179Z,5.20
2022-08-28T02:28:08.408Z,5.10
2022-08-28T02:30:37.084Z,5.20
2022-08-28T02:33:05.503Z,5.20
2022-08-28T02:35:33.704Z,4.60
2022-08-28T02:38:02.216Z,4.90
2022-08-28T02:40:30.569Z,5.60
2022-08-28T02:42:58.792Z,4.50
2022-08-28T02:45:26.807Z,4.30
2022-08-28T02:47:55.349Z,4.50
2022-08-28T02:50:24.508Z,4.70
2022-08-28T02:52:53.148Z,5.10
2022-08-28T02:55:22.366Z,6.90
2022-08-28T02:57:50.393Z,7.90
2022-08-28T03:00:23.153Z,7.70
2022-08-28T03:02:52.791Z,6.30
2022-08-28T03:05:26.064Z,7.60
2022-08-28T03:07:54.633Z,8.20
2022-08-28T03:10:23.306Z,8.00
2022-08-28T03:12:52.297Z,7.50
2022-08-28T03:15:20.671Z,7.30
2022-08-28T03:17:49.081Z,5.70
2022-08-28T03:20:19.766Z,5.50
2022-08-28T03:23:06.815Z,4.40
2022-08-28T03:25:35.223Z,5.10
2022-08-28T03:28:03.333Z,4.10
2022-08-28T03:30:31.361Z,3.90
2022-08-28T03:32:59.559Z,4.30
2022-08-28T03:35:27.656Z,4.20
2022-08-28T03:37:55.625Z,3.90
2022-08-28T03:40:23.621Z,4.30
2022-08-28T03:42:53.473Z,3.80
2022-08-28T03:45:22.666Z,3.80
2022-08-28T03:47:51.626Z,3.80
2022-08-28T03:50:19.890Z,3.90
2022-08-28T03:52:48.191Z,3.90
2022-08-28T03:55:19.277Z,4.40
2022-08-28T03:57:47.401Z,4.70
2022-08-28T04:00:16.430Z,4.00
2022-08-28T04:02:46.551Z,5.30
2022-08-28T04:05:14.876Z,6.00
2022-08-28T04:07:42.802Z,5.40
2022-08-28T04:10:12.667Z,5.30
2022-08-28T04:12:40.650Z,4.90
2022-08-28T04:15:09.551Z,4.90
2022-08-28T04:17:41.845Z,4.90
2022-08-28T04:20:11.521Z,4.20
2022-08-28T04:22:39.867Z,4.80
2022-08-28T04:25:08.624Z,5.50
2022-08-28T04:27:36.923Z,5.50
2022-08-28T04:30:06.206Z,5.70
2022-08-28T04:32:36.025Z,6.30
2022-08-28T04:35:07.019Z,6.40
2022-08-28T04:37:35.069Z,6.00
2022-08-28T04:40:06.412Z,6.00
2022-08-28T04:42:34.681Z,6.30
2022-08-28T04:45:03.137Z,6.20
2022-08-28T04:47:31.513Z,5.80
2022-08-28T04:49:59.592Z,5.60
2022-08-28T04:52:28.075Z,5.90
2022-08-28T04:54:56.564Z,5.90
2022-08-28T04:57:25.168Z,5.30
2022-08-28T04:59:53.233Z,6.10
2022-08-28T05:02:21.230Z,5.30
2022-08-28T05:04:49.443Z,5.60
2022-08-28T05:07:17.593Z,5.40
2022-08-28T05:09:46.037Z,5.50
2022-08-28T05:12:17.721Z,6.10
2022-08-28T05:17:17.409Z,4.60
2022-08-28T05:19:45.509Z,5.70
2022-08-28T05:22:13.461Z,5.60
2022-08-28T05:24:41.377Z,5.70
2022-08-28T05:27:09.687Z,7.00
2022-08-28T05:29:37.880Z,8.70
2022-08-28T05:32:06.016Z,8.40
2022-08-28T05:34:34.212Z,8.90
2022-08-28T05:37:02.796Z,9.60
2022-08-28T05:39:30.784Z,8.50
2022-08-28T05:41:58.808Z,6.90
2022-08-28T05:44:26.936Z,5.60
2022-08-28T05:46:54.886Z,6.20
2022-08-28T05:49:23.088Z,6.40
2022-08-28T05:51:51.536Z,6.70
2022-08-28T05:54:19.532Z,6.30
2022-08-28T05:56:48.248Z,6.80
2022-08-28T05:59:17.172Z,8.10
2022-08-28T06:01:50.311Z,9.30
2022-08-28T06:04:26.307Z,9.20
2022-08-28T06:06:55.048Z,8.90
2022-08-28T06:09:29.632Z,7.10
2022-08-28T06:12:01.866Z,7.30
2022-08-28T06:14:31.899Z,7.90
2022-08-28T06:17:00.954Z,9.10
2022-08-28T06:19:31.952Z,8.60
2022-08-28T06:22:07.338Z,9.40
2022-08-28T06:24:35.980Z,7.50
2022-08-28T06:27:04.258Z,7.30
2022-08-28T06:29:32.072Z,6.60
2022-08-28T06:32:02.027Z,7.50
2022-08-28T06:34:30.405Z,7.70
2022-08-28T06:36:58.410Z,8.90
2022-08-28T06:39:26.453Z,9.50
2022-08-28T06:41:54.564Z,9.50
2022-08-28T06:44:24.511Z,8.00
2022-08-28T06:46:55.116Z,6.80
2022-08-28T06:49:23.471Z,6.90
2022-08-28T06:51:52.057Z,7.70
2022-08-28T06:54:23.264Z,8.50
2022-08-28T06:59:20.174Z,7.70
2022-08-28T07:01:48.139Z,7.10
2022-08-28T07:04:16.175Z,6.90
2022-08-28T07:06:53.650Z,9.60
2022-08-28T07:09:23.711Z,8.40
2022-08-28T07:11:52.352Z,9.00
2022-08-28T07:14:20.414Z,8.70
2022-08-28T07:16:48.511Z,5.20
2022-08-28T07:19:16.790Z,6.40
2022-08-28T07:21:47.131Z,6.80
2022-08-28T07:24:16.653Z,7.10
2022-08-28T07:26:46.131Z,7.50
2022-08-28T07:29:14.991Z,7.30
2022-08-28T07:31:47.292Z,9.30
2022-08-28T07:34:19.890Z,9.60
2022-08-28T07:36:48.971Z,8.30
2022-08-28T07:39:18.352Z,6.80
2022-08-28T07:41:48.479Z,9.10
2022-08-28T07:44:48.351Z,8.20
2022-08-28T07:47:27.770Z,7.00
2022-08-28T07:49:58.791Z,7.00
2022-08-28T07:52:30.103Z,6.80
2022-08-28T07:54:59.890Z,7.50
2022-08-28T07:57:28.700Z,5.20
2022-08-28T08:00:17.971Z,5.20
2022-08-28T08:02:46.643Z,6.10
2022-08-28T08:05:17.487Z,5.80
2022-08-28T08:07:46.151Z,6.60
2022-08-28T08:10:19.837Z,6.00
2022-08-28T08:12:49.426Z,5.90
2022-08-28T08:15:20.626Z,5.60
2022-08-28T08:17:49.056Z,6.00
2022-08-28T08:20:17.286Z,6.70
2022-08-28T08:22:45.313Z,6.30
2022-08-28T08:25:15.480Z,6.50
2022-08-28T08:27:44.414Z,6.30
2022-08-28T08:30:13.494Z,6.10
2022-08-28T08:32:41.434Z,7.20
2022-08-28T08:35:09.819Z,7.90
2022-08-28T08:37:38.087Z,6.90
2022-08-28T08:40:10.475Z,6.50
2022-08-28T08:42:39.754Z,6.10
2022-08-28T08:45:14.595Z,6.60
2022-08-28T08:47:48.177Z,6.00
2022-08-28T08:50:22.894Z,6.20
2022-08-28T08:52:56.855Z,6.10
2022-08-28T08:55:29.295Z,6.00
2022-08-28T08:58:12.093Z,6.10
2022-08-28T09:01:24.755Z,5.90
2022-08-28T09:04:21.678Z,6.50
2022-08-28T09:07:16.654Z,5.90
2022-08-28T09:09:52.975Z,6.30
2022-08-28T09:12:37.812Z,5.20
2022-08-28T09:15:10.495Z,5.30
2022-08-28T09:17:51.156Z,5.60
2022-08-28T09:20:30.191Z,5.70
2022-08-28T09:23:12.368Z,5.00
2022-08-28T09:26:15.061Z,4.60
2022-08-28T09:28:46.754Z,4.00
2022-08-28T09:31:20.805Z,4.30
2022-08-28T09:33:54.437Z,4.50
2022-08-28T09:36:28.116Z,4.40
2022-08-28T09:39:41.926Z,4.50
2022-08-28T09:42:33.221Z,4.60
2022-08-28T09:45:14.223Z,4.90
2022-08-28T09:47:57.726Z,4.10
2022-08-28T09:50:44.025Z,4.90
2022-08-28T09:53:12.310Z,4.30
2022-08-28T09:56:04.767Z,4.30
2022-08-28T09:58:45.235Z,4.00
2022-08-28T10:01:31.776Z,4.90
2022-08-28T10:04:14.555Z,4.20
2022-08-28T10:06:50.666Z,4.50
2022-08-28T10:09:37.230Z,4.10
2022-08-28T10:12:33.735Z,4.40
2022-08-28T10:15:15.227Z,4.40
2022-08-28T10:20:45.695Z,4.60
2022-08-28T10:23:36.178Z,4.10
2022-08-28T10:26:24.587Z,4.50
2022-08-28T10:29:25.305Z,5.40
2022-08-28T10:32:12.701Z,4.90
2022-08-28T10:35:06.578Z,4.80
2022-08-28T10:37:52.994Z,5.10
2022-08-28T10:40:35.569Z,5.70
2022-08-28T10:43:10.681Z,5.70
2022-08-28T10:45:39.746Z,5.50
2022-08-28T10:48:34.989Z,4.60
2022-08-28T10:51:35.419Z,4.90
2022-08-28T10:54:18.386Z,4.70
2022-08-28T10:57:10.611Z,4.60
2022-08-28T10:59:42.060Z,4.70
2022-08-28T11:02:14.465Z,4.50
2022-08-28T11:04:42.695Z,4.50
2022-08-28T11:07:20.855Z,5.30
2022-08-28T11:09:50.066Z,4.70
2022-08-28T11:12:17.955Z,5.10
2022-08-28T11:14:53.525Z,5.10
2022-08-28T11:17:30.856Z,4.90
2022-08-28T11:20:18.737Z,5.60
2022-08-28T11:23:00.518Z,5.60
2022-08-28T11:25:41.614Z,9.20
2022-08-28T11:28:18.741Z,6.60
2022-08-28T11:30:50.622Z,5.40
2022-08-28T11:33:52.757Z,6.30
2022-08-28T11:36:20.616Z,7.40
2022-08-28T11:38:51.535Z,7.50
2022-08-28T11:41:24.681Z,8.40
2022-08-28T11:43:52.995Z,8.30
2022-08-28T11:46:35.020Z,14.10
2022-08-28T11:49:05.958Z,14.80
2022-08-28T11:51:58.535Z,14.20
2022-08-28T11:54:32.674Z,12.30
2022-08-28T11:57:09.795Z,11.60
2022-08-28T12:00:05.145Z,9.60
2022-08-28T12:02:44.533Z,6.80
2022-08-28T12:05:15.336Z,7.30
2022-08-28T12:07:49.756Z,7.70
2022-08-28T12:10:23.975Z,8.20
2022-08-28T12:12:54.069Z,7.50
2022-08-28T12:15:27.795Z,6.70
2022-08-28T12:17:57.775Z,7.40
2022-08-28T12:20:25.614Z,6.80
2022-08-28T12:22:58.056Z,7.90
2022-08-28T12:25:38.456Z,14.00
2022-08-28T12:28:22.396Z,10.20
2022-08-28T12:31:07.646Z,15.20
2022-08-28T12:33:47.534Z,11.70
2022-08-28T12:36:17.855Z,17.00
2022-08-28T12:38:52.215Z,15.70
2022-08-28T12:41:22.235Z,14.50
2022-08-28T12:43:59.219Z,14.90
2022-08-28T12:46:31.887Z,13.70
2022-08-28T12:49:02.250Z,13.00
2022-08-28T12:51:35.925Z,14.50
2022-08-28T12:54:07.874Z,12.70
2022-08-28T12:56:38.454Z,16.60
2022-08-28T12:59:44.976Z,16.50
2022-08-28T13:02:28.535Z,19.10
2022-08-28T13:05:04.994Z,19.00
2022-08-28T13:07:46.935Z,25.30
2022-08-28T13:10:33.485Z,25.80
2022-08-28T13:13:11.584Z,26.70
2022-08-28T13:15:50.210Z,29.00
2022-08-28T13:18:44.343Z,29.20
2022-08-28T13:21:32.679Z,28.90
2022-08-28T13:24:21.992Z,30.80
2022-08-28T13:27:00.703Z,32.90
2022-08-28T13:29:29.632Z,29.50
2022-08-28T13:32:16.935Z,27.10
2022-08-28T13:35:26.175Z,29.50
2022-08-28T13:38:00.817Z,29.30
2022-08-28T13:40:56.860Z,30.40
2022-08-28T13:43:29.527Z,32.60
2022-08-28T13:45:58.414Z,29.60
2022-08-28T13:48:28.230Z,26.50
2022-08-28T13:51:10.690Z,26.90
2022-08-28T13:53:39.858Z,25.10
2022-08-28T13:56:07.918Z,24.50
2022-08-28T13:58:35.902Z,27.70
2022-08-28T14:01:05.159Z,24.60
2022-08-28T14:03:36.996Z,25.30
2022-08-28T14:06:18.876Z,21.70
2022-08-28T14:08:47.344Z,20.10
2022-08-28T14:11:16.295Z,27.00
2022-08-28T14:13:46.881Z,25.60
2022-08-28T14:16:25.552Z,25.00
2022-08-28T14:18:54.265Z,27.00
2022-08-28T14:21:24.872Z,28.30
2022-08-28T14:23:53.008Z,27.70
2022-08-28T14:26:21.084Z,32.10
2022-08-28T14:28:49.124Z,32.80
2022-08-28T14:31:17.731Z,32.00
2022-08-28T14:33:46.546Z,35.90
2022-08-28T14:36:16.924Z,36.10
2022-08-28T14:38:45.304Z,33.60
2022-08-28T14:41:15.255Z,37.00
2022-08-28T14:43:44.087Z,39.70
2022-08-28T14:46:24.863Z,38.00
2022-08-28T14:48:55.471Z,38.40
2022-08-28T14:51:25.210Z,37.70
2022-08-28T14:53:54.451Z,34.50
2022-08-28T14:56:22.990Z,32.60
2022-08-28T14:58:51.110Z,30.30
2022-08-28T15:01:39.505Z,28.70
2022-08-28T15:04:16.278Z,29.40
2022-08-28T15:06:45.131Z,29.90
2022-08-28T15:09:14.733Z,29.00
2022-08-28T15:11:43.990Z,27.00
2022-08-28T15:14:12.772Z,27.30
2022-08-28T15:16:44.604Z,23.10
2022-08-28T15:19:18.466Z,23.00
2022-08-28T15:21:56.011Z,20.90
2022-08-28T15:24:27.686Z,18.50
2022-08-28T15:26:57.050Z,19.00
2022-08-28T15:31:06.369Z,16.20
2022-08-28T15:33:35.170Z,16.00
2022-08-28T15:36:03.590Z,15.50
2022-08-28T15:38:56.906Z,15.20
2022-08-28T15:41:27.091Z,15.00
2022-08-28T15:43:57.457Z,18.00
2022-08-28T15:46:25.712Z,17.90
2022-08-28T15:48:54.558Z,17.50
2022-08-28T15:51:26.154Z,14.60
2022-08-28T15:53:54.641Z,13.60
2022-08-28T15:56:23.220Z,11.30
2022-08-28T15:58:52.576Z,9.60
2022-08-28T16:01:23.896Z,7.40
2022-08-28T16:03:52.319Z,6.50
2022-08-28T16:06:22.556Z,6.40
2022-08-28T16:08:51.258Z,5.70
2022-08-28T16:11:23.631Z,5.00
2022-08-28T16:13:52.850Z,5.40
2022-08-28T16:16:21.790Z,5.20
2022-08-28T16:18:50.492Z,4.90
2022-08-28T16:21:20.446Z,5.10
2022-08-28T16:23:51.591Z,5.60
2022-08-28T16:26:20.042Z,5.20
2022-08-28T16:28:48.110Z,3.90
2022-08-28T16:31:20.490Z,4.50
2022-08-28T16:33:50.310Z,4.60
2022-08-28T16:36:19.420Z,4.90
2022-08-28T16:38:52.863Z,4.90
2022-08-28T16:41:32.676Z,5.10
2022-08-28T16:44:01.970Z,4.90
2022-08-28T16:46:30.413Z,5.10
2022-08-28T16:49:00.247Z,4.10
2022-08-28T16:51:30.013Z,4.30
2022-08-28T16:53:58.552Z,5.00
2022-08-28T16:56:27.241Z,5.20
2022-08-28T16:58:57.510Z,5.20
2022-08-28T17:01:27.306Z,5.10
2022-08-28T17:03:57.053Z,5.20
2022-08-28T17:06:30.390Z,4.60
2022-08-28T17:08:59.411Z,3.00
2022-08-28T17:11:28.010Z,3.30
2022-08-28T17:13:56.734Z,2.90
2022-08-28T17:16:26.490Z,2.90
2022-08-28T17:18:54.835Z,2.70
2022-08-28T17:21:42.350Z,2.90
2022-08-28T17:24:15.451Z,2.90
2022-08-28T17:26:44.885Z,2.90
2022-08-28T17:29:13.126Z,3.00
2022-08-28T17:31:41.726Z,3.20
2022-08-28T17:34:12.070Z,2.80
2022-08-28T17:36:42.930Z,3.20
2022-08-28T17:39:14.850Z,2.50
2022-08-28T17:41:44.470Z,2.60
2022-08-28T17:44:15.595Z,2.60
2022-08-28T17:46:43.852Z,2.60
2022-08-28T17:49:11.791Z,2.70
2022-08-28T17:51:43.753Z,2.60
2022-08-28T17:54:14.595Z,3.30
2022-08-28T17:56:43.371Z,2.90
2022-08-28T17:59:12.952Z,3.00
2022-08-28T18:01:42.451Z,2.90
2022-08-28T18:04:11.448Z,2.80
2022-08-28T18:06:41.253Z,1.80
2022-08-28T18:09:11.075Z,2.50
2022-08-28T18:11:39.650Z,2.50
2022-08-28T18:14:09.710Z,2.90
2022-08-28T18:16:39.152Z,2.80
2022-08-28T18:19:10.172Z,2.50
2022-08-28T18:21:39.730Z,3.00
2022-08-28T18:24:09.293Z,3.30
2022-08-28T18:26:37.890Z,3.30
2022-08-28T18:29:07.074Z,3.70
2022-08-28T18:31:35.541Z,2.10
2022-08-28T18:34:04.370Z,2.20
2022-08-28T18:36:33.571Z,3.00
2022-08-28T18:39:01.910Z,2.80
2022-08-28T18:41:34.541Z,3.80
2022-08-28T18:44:15.909Z,3.50
2022-08-28T18:46:45.650Z,4.00
2022-08-28T18:49:14.490Z,3.40
2022-08-28T18:51:45.490Z,4.30
2022-08-28T18:54:16.411Z,2.60
2022-08-28T18:56:48.321Z,2.70
2022-08-28T18:59:19.190Z,3.00
2022-08-28T19:01:47.377Z,3.20
2022-08-28T19:04:15.650Z,4.10
2022-08-28T19:06:44.303Z,3.70
2022-08-28T19:09:19.389Z,3.50
2022-08-28T19:11:49.454Z,3.50
2022-08-28T19:14:17.840Z,3.30
2022-08-28T19:16:46.510Z,2.60
2022-08-28T19:19:15.290Z,2.50
2022-08-28T19:21:45.071Z,2.40
2022-08-28T19:24:16.971Z,2.70
2022-08-28T19:26:45.750Z,3.10
2022-08-28T19:29:14.955Z,3.90
2022-08-28T19:31:46.804Z,4.40
2022-08-28T19:36:43.126Z,4.60
2022-08-28T19:39:11.831Z,4.10
2022-08-28T19:41:40.262Z,5.80
2022-08-28T19:44:08.734Z,4.30
2022-08-28T19:46:38.644Z,4.40
2022-08-28T19:49:08.073Z,4.10
2022-08-28T19:51:37.922Z,4.10
2022-08-28T19:54:11.643Z,4.10
2022-08-28T19:56:40.782Z,4.60
2022-08-28T19:59:09.663Z,4.40
2022-08-28T20:04:30.161Z,3.60
2022-08-28T20:07:02.706Z,4.20
2022-08-28T20:09:31.021Z,4.90
2022-08-28T20:12:01.671Z,5.70
2022-08-28T20:14:32.323Z,6.00
2022-08-28T20:17:01.103Z,5.60
2022-08-28T20:19:29.443Z,5.00
2022-08-28T20:21:58.117Z,4.60
2022-08-28T20:24:26.902Z,4.00
2022-08-28T20:26:55.407Z,2.40
2022-08-28T20:29:24.891Z,2.70
2022-08-28T20:31:53.482Z,2.90
2022-08-28T20:34:22.270Z,3.00
2022-08-28T20:36:50.853Z,3.20
2022-08-28T20:39:20.271Z,3.10
2022-08-28T20:41:49.990Z,3.80
2022-08-28T20:44:20.642Z,4.70
2022-08-28T20:46:50.963Z,4.90
2022-08-28T20:49:22.602Z,4.50
2022-08-28T20:51:57.496Z,4.20
2022-08-28T20:54:39.422Z,2.80
2022-08-28T20:57:10.442Z,3.70
2022-08-28T20:59:41.102Z,5.40
2022-08-28T21:02:14.070Z,5.30
2022-08-28T21:04:43.932Z,6.30
2022-08-28T21:07:13.922Z,6.50
2022-08-28T21:10:05.478Z,7.20
2022-08-28T21:12:31.230Z,8.30
2022-08-28T21:15:00.403Z,7.90
2022-08-28T21:17:30.728Z,5.50
2022-08-28T21:20:06.710Z,5.60
2022-08-28T21:22:36.014Z,3.20
2022-08-28T21:25:07.950Z,3.20
2022-08-28T21:27:37.081Z,3.10
2022-08-28T21:30:07.402Z,3.40
2022-08-28T21:32:36.691Z,4.10
2022-08-28T21:35:08.060Z,3.90
2022-08-28T21:37:36.355Z,5.10
2022-08-28T21:40:06.975Z,6.00
2022-08-28T21:42:35.250Z,6.50
2022-08-28T21:45:08.380Z,6.10
2022-08-28T21:47:40.051Z,6.10
2022-08-28T21:50:08.985Z,3.80
2022-08-28T21:52:36.854Z,5.30
2022-08-28T21:55:09.828Z,5.70
2022-08-28T21:57:37.778Z,6.20
2022-08-28T22:00:18.717Z,6.00
2022-08-28T22:02:47.673Z,3.60
2022-08-28T22:05:16.145Z,3.30
2022-08-28T22:07:46.771Z,3.30
2022-08-28T22:10:15.407Z,3.40
2022-08-28T22:12:43.394Z,3.10
2022-08-28T22:15:11.561Z,2.90
2022-08-28T22:17:39.564Z,2.60
2022-08-28T22:20:08.338Z,2.20
2022-08-28T22:22:54.692Z,2.00
2022-08-28T22:25:22.906Z,2.80
2022-08-28T22:27:51.013Z,2.80
2022-08-28T22:30:20.450Z,3.00
2022-08-28T22:32:48.170Z,2.50
2022-08-28T22:35:16.218Z,2.90
2022-08-28T22:37:44.125Z,3.10
2022-08-28T22:40:13.825Z,3.60
2022-08-28T22:42:43.051Z,3.60
2022-08-28T22:45:11.145Z,3.10
2022-08-28T22:47:40.158Z,3.40
2022-08-28T22:50:08.955Z,2.90
2022-08-28T22:52:37.799Z,2.50
2022-08-28T22:55:12.785Z,2.20
2022-08-28T22:57:41.138Z,2.40
2022-08-28T23:00:12.582Z,3.30
2022-08-28T23:02:42.319Z,2.70
2022-08-28T23:05:10.477Z,3.00
2022-08-28T23:07:39.325Z,2.90
2022-08-28T23:10:08.026Z,3.50
2022-08-28T23:12:36.380Z,3.30
2022-08-28T23:15:07.707Z,3.40
2022-08-28T23:17:35.701Z,3.80
2022-08-28T23:20:08.248Z,4.00
2022-08-28T23:22:38.895Z,4.20
2022-08-28T23:25:08.319Z,3.60
2022-08-28T23:27:36.881Z,2.70
2022-08-28T23:30:07.417Z,3.50
2022-08-28T23:32:35.534Z,3.40
2022-08-28T23:35:07.275Z,4.20
2022-08-28T23:37:35.690Z,4.40
2022-08-28T23:40:08.940Z,4.70
2022-08-28T23:42:37.710Z,4.50
2022-08-28T23:45:07.044Z,5.10
2022-08-28T23:47:35.042Z,4.60
2022-08-28T23:50:12.704Z,5.80
2022-08-28T23:52:40.828Z,6.40
2022-08-28T23:55:12.508Z,6.60
2022-08-28T23:57:40.334Z,6.10
